createdAt,value
2019-04-12T00:01:12.774Z,100.00
2019-04-12T00:03:41.549Z,100.00
2019-04-12T00:06:09.984Z,100.00
2019-04-12T00:08:38.383Z,100.00
2019-04-12T00:11:06.879Z,100.00
2019-04-12T00:13:35.281Z,100.00
2019-04-12T00:16:03.716Z,100.00
2019-04-12T00:18:32.113Z,100.00
2019-04-12T00:21:00.551Z,100.00
2019-04-12T00:23:28.948Z,100.00
2019-04-12T00:25:57.378Z,100.00
2019-04-12T00:28:25.780Z,100.00
2019-04-12T00:30:54.486Z,100.00
2019-04-12T00:33:23.042Z,100.00
2019-04-12T00:35:52.269Z,100.00
2019-04-12T00:38:20.798Z,100.00
2019-04-12T00:40:49.245Z,100.00
2019-04-12T00:43:17.644Z,100.00
2019-04-12T00:45:46.084Z,100.00
2019-04-12T00:48:14.493Z,100.00
2019-04-12T00:50:42.927Z,100.00
2019-04-12T00:53:13.531Z,100.00
2019-04-12T00:55:41.489Z,100.00
2019-04-12T00:58:09.897Z,100.00
2019-04-12T01:00:55.874Z,100.00
2019-04-12T01:03:24.350Z,100.00
2019-04-12T01:05:53.076Z,100.00
2019-04-12T01:08:21.742Z,100.00
2019-04-12T01:10:53.663Z,100.00
2019-04-12T01:13:21.939Z,100.00
2019-04-12T01:15:50.343Z,100.00
2019-04-12T01:18:18.781Z,100.00
2019-04-12T01:20:47.356Z,100.00
2019-04-12T01:23:15.865Z,100.00
2019-04-12T01:25:45.276Z,100.00
2019-04-12T01:28:17.764Z,100.00
2019-04-12T01:30:44.045Z,100.00
2019-04-12T01:33:14.822Z,100.00
2019-04-12T01:35:42.617Z,100.00
2019-04-12T01:38:11.045Z,100.00
2019-04-12T01:40:39.454Z,100.00
2019-04-12T01:43:07.887Z,100.00
2019-04-12T01:45:36.299Z,100.00
2019-04-12T01:48:04.800Z,100.00
2019-04-12T01:50:33.224Z,100.00
2019-04-12T01:53:01.642Z,100.00
2019-04-12T01:55:30.042Z,100.00
2019-04-12T01:57:58.572Z,100.00
2019-04-12T02:00:26.979Z,100.00
2019-04-12T02:02:55.410Z,100.00
2019-04-12T02:05:23.819Z,100.00
2019-04-12T02:07:52.254Z,100.00
2019-04-12T02:10:20.730Z,100.00
2019-04-12T02:12:49.138Z,100.00
2019-04-12T02:15:17.836Z,100.00
2019-04-12T02:17:46.240Z,100.00
2019-04-12T02:20:14.824Z,100.00
2019-04-12T02:22:43.225Z,100.00
2019-04-12T02:25:20.453Z,100.00
2019-04-12T02:27:41.928Z,100.00
2019-04-12T02:30:12.401Z,100.00
2019-04-12T02:32:45.212Z,100.00
2019-04-12T02:35:15.362Z,100.00
2019-04-12T02:37:43.834Z,100.00
2019-04-12T02:40:12.609Z,100.00
2019-04-12T02:42:41.886Z,100.00
2019-04-12T02:45:10.386Z,100.00
2019-04-12T02:47:48.445Z,100.00
2019-04-12T02:50:25.882Z,100.00
2019-04-12T02:53:00.352Z,100.00
2019-04-12T02:55:45.736Z,100.00
2019-04-12T02:58:32.536Z,100.00
2019-04-12T03:01:03.287Z,100.00
2019-04-12T03:03:31.863Z,100.00
2019-04-12T03:06:00.290Z,100.00
2019-04-12T03:08:28.701Z,100.00
2019-04-12T03:10:57.605Z,100.00
2019-04-12T03:13:27.379Z,100.00
2019-04-12T03:15:56.144Z,100.00
2019-04-12T03:18:24.614Z,100.00
2019-04-12T03:20:53.113Z,100.00
2019-04-12T03:23:21.655Z,100.00
2019-04-12T03:25:53.445Z,100.00
2019-04-12T03:28:20.362Z,100.00
2019-04-12T03:30:48.865Z,100.00
2019-04-12T03:33:17.541Z,100.00
2019-04-12T03:35:46.039Z,100.00
2019-04-12T03:38:14.439Z,100.00
2019-04-12T03:40:42.939Z,100.00
2019-04-12T03:43:11.517Z,100.00
2019-04-12T03:45:40.019Z,100.00
2019-04-12T03:48:08.504Z,100.00
2019-04-12T03:50:37.706Z,100.00
2019-04-12T03:53:06.174Z,100.00
2019-04-12T03:55:35.124Z,100.00
2019-04-12T03:58:03.616Z,100.00
2019-04-12T04:00:33.665Z,100.00
2019-04-12T04:03:02.102Z,100.00
2019-04-12T04:05:30.566Z,100.00
2019-04-12T04:07:59.170Z,100.00
2019-04-12T04:10:28.254Z,100.00
2019-04-12T04:12:56.822Z,100.00
2019-04-12T04:15:25.296Z,100.00
2019-04-12T04:17:57.824Z,100.00
2019-04-12T04:20:33.840Z,100.00
2019-04-12T04:23:19.332Z,100.00
2019-04-12T04:25:52.241Z,100.00
2019-04-12T04:28:38.531Z,100.00
2019-04-12T04:31:11.270Z,100.00
2019-04-12T04:33:53.631Z,100.00
2019-04-12T04:36:22.045Z,100.00
2019-04-12T04:38:50.821Z,100.00
2019-04-12T04:41:19.290Z,100.00
2019-04-12T04:43:47.798Z,100.00
2019-04-12T04:46:16.199Z,100.00
2019-04-12T04:48:44.630Z,100.00
2019-04-12T04:51:13.106Z,100.00
2019-04-12T04:53:41.614Z,100.00
2019-04-12T04:56:10.186Z,100.00
2019-04-12T04:58:38.620Z,100.00
2019-04-12T05:01:07.596Z,100.00
2019-04-12T05:03:36.216Z,100.00
2019-04-12T05:06:04.886Z,100.00
2019-04-12T05:08:33.585Z,100.00
2019-04-12T05:11:02.154Z,100.00
2019-04-12T05:13:30.654Z,100.00
2019-04-12T05:15:59.054Z,100.00
2019-04-12T05:18:27.558Z,100.00
2019-04-12T05:20:56.038Z,100.00
2019-04-12T05:23:24.517Z,100.00
2019-04-12T05:25:53.012Z,100.00
2019-04-12T05:28:23.035Z,100.00
2019-04-12T05:30:51.668Z,100.00
2019-04-12T05:33:20.241Z,100.00
2019-04-12T05:35:49.409Z,100.00
2019-04-12T05:38:18.297Z,100.00
2019-04-12T05:40:46.793Z,100.00
2019-04-12T05:43:15.207Z,100.00
2019-04-12T05:45:48.376Z,100.00
2019-04-12T05:48:18.495Z,100.00
2019-04-12T05:50:46.998Z,100.00
2019-04-12T05:53:15.468Z,100.00
2019-04-12T05:55:51.142Z,100.00
2019-04-12T05:58:33.258Z,100.00
2019-04-12T06:01:06.128Z,100.00
2019-04-12T06:03:35.427Z,100.00
2019-04-12T06:06:04.384Z,100.00
2019-04-12T06:08:32.843Z,100.00
2019-04-12T06:11:01.348Z,100.00
2019-04-12T06:13:30.529Z,100.00
2019-04-12T06:15:59.129Z,100.00
2019-04-12T06:18:27.537Z,100.00
2019-04-12T06:20:58.874Z,100.00
2019-04-12T06:23:27.351Z,100.00
2019-04-12T06:25:57.425Z,100.00
2019-04-12T06:28:25.828Z,100.00
2019-04-12T06:30:55.972Z,100.00
2019-04-12T06:33:24.448Z,100.00
2019-04-12T06:35:52.943Z,100.00
2019-04-12T06:38:21.434Z,100.00
2019-04-12T06:40:49.857Z,100.00
2019-04-12T06:43:18.324Z,100.00
2019-04-12T06:45:46.834Z,100.00
2019-04-12T06:48:15.235Z,100.00
2019-04-12T06:50:45.378Z,100.00
2019-04-12T06:53:13.786Z,100.00
2019-04-12T06:55:46.481Z,100.00
2019-04-12T06:58:14.986Z,100.00
2019-04-12T07:00:47.975Z,100.00
2019-04-12T07:03:34.400Z,100.00
2019-04-12T07:06:03.313Z,100.00
2019-04-12T07:08:31.715Z,100.00
2019-04-12T07:11:00.116Z,99.44
2019-04-12T07:13:28.548Z,99.92
2019-04-12T07:15:56.953Z,99.92
2019-04-12T07:18:25.374Z,98.74
2019-04-12T07:20:53.779Z,97.01
2019-04-12T07:23:22.211Z,96.86
2019-04-12T07:25:50.681Z,96.86
2019-04-12T07:28:19.111Z,95.76
2019-04-12T07:30:56.669Z,92.78
2019-04-12T07:33:18.254Z,92.78
2019-04-12T07:35:46.649Z,89.66
2019-04-12T07:38:15.089Z,89.66
2019-04-12T07:40:43.496Z,89.54
2019-04-12T07:43:11.929Z,87.44
2019-04-12T07:45:40.356Z,87.44
2019-04-12T07:48:08.834Z,82.30
2019-04-12T07:50:47.729Z,82.56
2019-04-12T07:53:16.153Z,82.56
2019-04-12T07:55:48.656Z,81.56
2019-04-12T07:58:18.720Z,79.43
2019-04-12T08:01:03.870Z,74.23
2019-04-12T08:03:42.990Z,73.18
2019-04-12T08:06:18.834Z,73.95
2019-04-12T08:08:47.261Z,74.99
2019-04-12T08:11:15.664Z,74.99
2019-04-12T08:13:44.091Z,75.86
2019-04-12T08:16:12.584Z,75.31
2019-04-12T08:18:41.064Z,75.89
2019-04-12T08:21:09.459Z,75.89
2019-04-12T08:23:37.951Z,71.34
2019-04-12T08:26:06.356Z,68.38
2019-04-12T08:28:34.784Z,69.69
2019-04-12T08:31:03.213Z,67.64
2019-04-12T08:33:31.675Z,72.03
2019-04-12T08:36:00.062Z,72.03
2019-04-12T08:38:28.463Z,70.48
2019-04-12T08:40:56.971Z,67.49
2019-04-12T08:43:25.368Z,67.49
2019-04-12T08:45:53.797Z,66.30
2019-04-12T08:48:22.208Z,65.11
2019-04-12T08:50:50.680Z,65.62
2019-04-12T08:53:19.088Z,67.62
2019-04-12T08:55:47.576Z,65.28
2019-04-12T08:58:15.990Z,65.28
2019-04-12T09:00:44.607Z,66.11
2019-04-12T09:03:13.031Z,66.11
2019-04-12T09:05:41.485Z,65.71
2019-04-12T09:08:09.894Z,66.80
2019-04-12T09:10:38.334Z,66.61
2019-04-12T09:13:06.723Z,65.65
2019-04-12T09:15:35.827Z,65.32
2019-04-12T09:18:04.323Z,65.32
2019-04-12T09:20:40.586Z,64.14
2019-04-12T09:23:10.653Z,63.67
2019-04-12T09:25:40.832Z,65.11
2019-04-12T09:28:09.957Z,65.36
2019-04-12T09:30:39.683Z,65.36
2019-04-12T09:33:08.207Z,66.47
2019-04-12T09:35:36.652Z,64.96
2019-04-12T09:38:05.075Z,64.96
2019-04-12T09:40:33.483Z,64.38
2019-04-12T09:43:01.926Z,62.77
2019-04-12T09:45:30.478Z,62.77
2019-04-12T09:47:58.902Z,61.69
2019-04-12T09:50:27.306Z,62.28
2019-04-12T09:52:55.739Z,62.28
2019-04-12T09:55:24.285Z,63.31
2019-04-12T09:57:52.729Z,64.15
2019-04-12T10:00:21.621Z,63.95
2019-04-12T10:02:50.170Z,63.95
2019-04-12T10:05:18.568Z,62.92
2019-04-12T10:07:46.994Z,62.27
2019-04-12T10:10:15.463Z,61.91
2019-04-12T10:12:43.886Z,61.08
2019-04-12T10:15:14.464Z,62.20
2019-04-12T10:17:42.893Z,62.65
2019-04-12T10:20:11.532Z,63.17
2019-04-12T10:22:39.961Z,63.17
2019-04-12T10:25:08.504Z,65.64
2019-04-12T10:27:38.575Z,66.81
2019-04-12T10:30:07.812Z,63.46
2019-04-12T10:32:36.247Z,60.02
2019-04-12T10:35:05.022Z,61.24
2019-04-12T10:37:33.610Z,64.56
2019-04-12T10:40:02.004Z,64.90
2019-04-12T10:42:30.401Z,64.62
2019-04-12T10:45:02.960Z,65.50
2019-04-12T10:47:39.173Z,65.27
2019-04-12T10:50:24.593Z,63.70
2019-04-12T10:52:54.683Z,63.40
2019-04-12T10:55:27.573Z,63.60
2019-04-12T10:57:56.045Z,63.82
2019-04-12T11:00:26.112Z,65.94
2019-04-12T11:02:54.509Z,64.86
2019-04-12T11:05:23.046Z,64.76
2019-04-12T11:07:51.430Z,62.17
2019-04-12T11:10:19.862Z,62.17
2019-04-12T11:12:48.259Z,62.11
2019-04-12T11:15:21.644Z,61.17
2019-04-12T11:17:46.883Z,61.17
2019-04-12T11:20:15.308Z,59.71
2019-04-12T11:22:43.712Z,58.15
2019-04-12T11:25:12.210Z,57.30
2019-04-12T11:27:40.609Z,55.49
2019-04-12T11:30:09.310Z,52.70
2019-04-12T11:32:37.706Z,53.58
2019-04-12T11:35:07.109Z,53.29
2019-04-12T11:37:35.510Z,52.10
2019-04-12T11:40:05.607Z,51.70
2019-04-12T11:42:33.985Z,54.89
2019-04-12T11:45:02.471Z,57.11
2019-04-12T11:47:30.873Z,56.42
2019-04-12T11:49:59.302Z,54.34
2019-04-12T11:52:27.700Z,53.79
2019-04-12T11:54:56.129Z,53.49
2019-04-12T11:57:24.538Z,53.95
2019-04-12T11:59:52.969Z,49.62
2019-04-12T12:02:31.888Z,46.94
2019-04-12T12:05:04.389Z,46.10
2019-04-12T12:07:49.233Z,49.67
2019-04-12T12:10:12.159Z,50.57
2019-04-12T12:12:44.983Z,48.82
2019-04-12T12:15:30.097Z,48.84
2019-04-12T12:18:00.139Z,49.69
2019-04-12T12:20:28.632Z,50.62
2019-04-12T12:22:57.030Z,53.76
2019-04-12T12:25:25.439Z,51.83
2019-04-12T12:27:53.876Z,52.94
2019-04-12T12:30:22.274Z,51.13
2019-04-12T12:32:50.698Z,50.94
2019-04-12T12:35:19.103Z,51.94
2019-04-12T12:37:47.529Z,52.44
2019-04-12T12:40:15.929Z,50.65
2019-04-12T12:42:44.353Z,50.29
2019-04-12T12:45:12.897Z,51.08
2019-04-12T12:47:41.321Z,51.93
2019-04-12T12:50:09.898Z,50.11
2019-04-12T12:52:38.329Z,47.82
2019-04-12T12:55:06.725Z,45.50
2019-04-12T12:57:35.153Z,44.88
2019-04-12T13:00:04.023Z,44.53
2019-04-12T13:02:32.453Z,43.08
2019-04-12T13:05:00.922Z,43.99
2019-04-12T13:07:29.346Z,44.10
2019-04-12T13:09:57.753Z,44.44
2019-04-12T13:12:26.181Z,46.19
2019-04-12T13:14:54.583Z,45.18
2019-04-12T13:17:23.017Z,44.33
2019-04-12T13:19:51.424Z,43.59
2019-04-12T13:22:19.849Z,44.63
2019-04-12T13:24:48.251Z,45.01
2019-04-12T13:27:16.650Z,45.09
2019-04-12T13:29:45.445Z,45.20
2019-04-12T13:32:21.265Z,45.96
2019-04-12T13:34:54.120Z,47.14
2019-04-12T13:37:35.775Z,48.59
2019-04-12T13:40:07.488Z,45.92
2019-04-12T13:42:40.295Z,46.00
2019-04-12T13:45:10.130Z,46.52
2019-04-12T13:47:38.542Z,47.19
2019-04-12T13:50:07.735Z,46.79
2019-04-12T13:52:36.222Z,46.48
2019-04-12T13:55:05.900Z,48.17
2019-04-12T13:57:34.289Z,51.71
2019-04-12T14:00:03.088Z,51.31
2019-04-12T14:02:31.485Z,52.46
2019-04-12T14:04:59.923Z,52.21
2019-04-12T14:07:28.331Z,52.68
2019-04-12T14:09:56.759Z,51.18
2019-04-12T14:12:25.163Z,51.53
2019-04-12T14:14:53.587Z,49.90
2019-04-12T14:17:21.982Z,48.23
2019-04-12T14:19:50.411Z,47.40
2019-04-12T14:22:18.824Z,47.74
2019-04-12T14:24:47.258Z,48.96
2019-04-12T14:27:15.723Z,50.35
2019-04-12T14:29:44.146Z,50.22
2019-04-12T14:32:14.192Z,50.04
2019-04-12T14:34:44.265Z,50.26
2019-04-12T14:37:16.925Z,50.07
2019-04-12T14:39:45.723Z,49.80
2019-04-12T14:42:14.390Z,49.55
2019-04-12T14:44:50.314Z,49.69
2019-04-12T14:47:23.049Z,49.91
2019-04-12T14:49:51.473Z,50.49
2019-04-12T14:52:19.874Z,50.27
2019-04-12T14:54:48.301Z,49.17
2019-04-12T14:57:16.704Z,49.17
2019-04-12T14:59:45.129Z,48.78
2019-04-12T15:02:13.543Z,48.79
2019-04-12T15:04:41.962Z,48.20
2019-04-12T15:07:10.368Z,50.46
2019-04-12T15:09:38.842Z,51.20
2019-04-12T15:12:07.247Z,51.97
2019-04-12T15:14:35.732Z,51.17
2019-04-12T15:17:04.440Z,50.81
2019-04-12T15:19:32.836Z,50.81
2019-04-12T15:22:01.272Z,49.11
2019-04-12T15:24:29.674Z,47.97
2019-04-12T15:26:58.097Z,48.28
2019-04-12T15:29:26.504Z,48.28
2019-04-12T15:31:54.933Z,49.29
2019-04-12T15:34:23.336Z,49.29
2019-04-12T15:36:51.765Z,50.07
2019-04-12T15:39:20.165Z,48.47
2019-04-12T15:41:48.603Z,48.47
2019-04-12T15:44:17.002Z,50.29
2019-04-12T15:46:45.505Z,50.29
2019-04-12T15:49:13.913Z,50.89
2019-04-12T15:51:42.342Z,50.27
2019-04-12T15:54:10.744Z,49.69
2019-04-12T15:56:39.169Z,49.98
2019-04-12T15:59:07.575Z,50.30
2019-04-12T16:01:36.073Z,51.35
2019-04-12T16:04:05.008Z,51.34
2019-04-12T16:06:33.509Z,50.47
2019-04-12T16:09:17.981Z,52.59
2019-04-12T16:11:49.587Z,52.59
2019-04-12T16:14:20.501Z,53.29
2019-04-12T16:17:15.951Z,52.47
2019-04-12T16:19:46.293Z,52.24
2019-04-12T16:22:14.795Z,52.58
2019-04-12T16:24:43.265Z,54.18
2019-04-12T16:27:11.697Z,55.72
2019-04-12T16:29:44.493Z,58.28
2019-04-12T16:32:20.240Z,58.28
2019-04-12T16:35:06.120Z,64.72
2019-04-12T16:37:38.899Z,69.94
2019-04-12T16:40:08.069Z,78.04
2019-04-12T16:42:36.516Z,78.04
2019-04-12T16:45:06.407Z,79.26
2019-04-12T16:47:34.908Z,79.26
2019-04-12T16:50:04.589Z,81.31
2019-04-12T16:52:32.982Z,84.67
2019-04-12T16:55:01.412Z,84.67
2019-04-12T16:57:29.818Z,89.42
2019-04-12T16:59:58.248Z,93.39
2019-04-12T17:02:26.654Z,93.39
2019-04-12T17:04:55.110Z,97.41
2019-04-12T17:07:23.488Z,100.00
2019-04-12T17:09:51.926Z,100.00
2019-04-12T17:12:20.325Z,100.00
2019-04-12T17:14:48.756Z,100.00
2019-04-12T17:17:17.159Z,100.00
2019-04-12T17:19:45.592Z,100.00
2019-04-12T17:22:13.996Z,100.00
2019-04-12T17:24:42.423Z,100.00
2019-04-12T17:27:10.832Z,100.00
2019-04-12T17:29:39.274Z,100.00
2019-04-12T17:32:07.683Z,100.00
2019-04-12T17:34:36.115Z,100.00
2019-04-12T17:37:04.519Z,100.00
2019-04-12T17:39:32.946Z,100.00
2019-04-12T17:42:01.353Z,100.00
2019-04-12T17:44:29.783Z,100.00
2019-04-12T17:46:58.188Z,100.00
2019-04-12T17:49:34.199Z,100.00
2019-04-12T17:52:04.246Z,100.00
2019-04-12T17:54:52.670Z,100.00
2019-04-12T17:57:21.071Z,100.00
2019-04-12T17:59:49.512Z,100.00
2019-04-12T18:02:22.224Z,100.00
2019-04-12T18:05:10.178Z,100.00
2019-04-12T18:07:38.587Z,100.00
2019-04-12T18:10:11.332Z,100.00
2019-04-12T18:12:39.807Z,100.00
2019-04-12T18:15:10.242Z,100.00
2019-04-12T18:17:38.649Z,100.00
2019-04-12T18:20:07.688Z,100.00
2019-04-12T18:22:36.124Z,100.00
2019-04-12T18:25:07.231Z,100.00
2019-04-12T18:27:35.795Z,100.00
2019-04-12T18:30:05.596Z,100.00
2019-04-12T18:32:34.043Z,100.00
2019-04-12T18:35:02.456Z,100.00
2019-04-12T18:37:30.917Z,100.00
2019-04-12T18:39:59.288Z,100.00
2019-04-12T18:42:27.790Z,100.00
2019-04-12T18:44:56.270Z,100.00
2019-04-12T18:47:24.706Z,100.00
2019-04-12T18:49:53.146Z,100.00
2019-04-12T18:52:21.558Z,100.00
2019-04-12T18:54:49.962Z,100.00
2019-04-12T18:57:18.396Z,100.00
2019-04-12T18:59:46.797Z,100.00
2019-04-12T19:02:26.447Z,100.00
2019-04-12T19:04:45.426Z,100.00
2019-04-12T19:07:15.902Z,100.00
2019-04-12T19:09:44.405Z,100.00
2019-04-12T19:12:12.837Z,100.00
2019-04-12T19:14:41.246Z,100.00
2019-04-12T19:17:11.382Z,100.00
2019-04-12T19:19:39.786Z,100.00
2019-04-12T19:22:08.219Z,100.00
2019-04-12T19:24:36.618Z,100.00
2019-04-12T19:27:05.122Z,100.00
2019-04-12T19:29:33.533Z,100.00
2019-04-12T19:32:12.466Z,100.00
2019-04-12T19:34:51.224Z,100.00
2019-04-12T19:37:33.315Z,100.00
2019-04-12T19:40:09.006Z,100.00
2019-04-12T19:42:37.439Z,100.00
2019-04-12T19:45:06.883Z,100.00
2019-04-12T19:47:35.327Z,100.00
2019-04-12T19:50:05.075Z,100.00
2019-04-12T19:52:35.920Z,100.00
2019-04-12T19:55:03.722Z,100.00
2019-04-12T19:57:32.145Z,100.00
2019-04-12T20:00:00.551Z,100.00
2019-04-12T20:02:28.957Z,100.00
2019-04-12T20:04:57.385Z,100.00
2019-04-12T20:07:25.794Z,100.00
2019-04-12T20:09:54.227Z,100.00
2019-04-12T20:12:22.641Z,100.00
2019-04-12T20:14:51.074Z,100.00
2019-04-12T20:17:19.479Z,100.00
2019-04-12T20:19:47.917Z,100.00
2019-04-12T20:22:16.336Z,100.00
2019-04-12T20:24:44.766Z,100.00
2019-04-12T20:27:13.171Z,100.00
2019-04-12T20:29:41.603Z,100.00
2019-04-12T20:32:10.006Z,100.00
2019-04-12T20:34:38.446Z,100.00
2019-04-12T20:37:06.848Z,100.00
2019-04-12T20:39:35.275Z,100.00
2019-04-12T20:42:03.744Z,100.00
2019-04-12T20:44:32.179Z,100.00
2019-04-12T20:47:00.595Z,100.00
2019-04-12T20:49:29.096Z,100.00
2019-04-12T20:51:57.497Z,100.00
2019-04-12T20:54:25.931Z,100.00
2019-04-12T20:56:54.339Z,100.00
2019-04-12T20:59:22.795Z,100.00
2019-04-12T21:01:51.211Z,100.00
2019-04-12T21:04:19.612Z,100.00
2019-04-12T21:06:48.058Z,100.00
2019-04-12T21:09:16.458Z,100.00
2019-04-12T21:11:44.891Z,100.00
2019-04-12T21:14:13.288Z,100.00
2019-04-12T21:16:41.803Z,100.00
2019-04-12T21:19:10.355Z,100.00
2019-04-12T21:21:38.823Z,100.00
2019-04-12T21:24:07.230Z,100.00
2019-04-12T21:26:35.658Z,100.00
2019-04-12T21:29:04.086Z,100.00
2019-04-12T21:31:32.504Z,100.00
2019-04-12T21:34:00.902Z,100.00
2019-04-12T21:36:29.329Z,100.00
2019-04-12T21:38:57.734Z,100.00
2019-04-12T21:41:26.165Z,100.00
2019-04-12T21:43:54.574Z,100.00
2019-04-12T21:46:23.012Z,100.00
2019-04-12T21:48:51.413Z,100.00
2019-04-12T21:51:19.927Z,100.00
2019-04-12T21:53:50.363Z,100.00
2019-04-12T21:56:18.480Z,100.00
2019-04-12T21:58:46.881Z,100.00
2019-04-12T22:01:17.158Z,100.00
2019-04-12T22:03:46.056Z,100.00
2019-04-12T22:06:14.491Z,100.00
2019-04-12T22:08:42.897Z,100.00
2019-04-12T22:11:11.327Z,100.00
2019-04-12T22:13:39.727Z,100.00
2019-04-12T22:16:08.227Z,100.00
2019-04-12T22:18:36.631Z,100.00
2019-04-12T22:21:05.112Z,100.00
2019-04-12T22:23:33.535Z,100.00
2019-04-12T22:26:02.120Z,100.00
2019-04-12T22:28:30.546Z,100.00
2019-04-12T22:30:58.948Z,100.00
2019-04-12T22:33:27.393Z,100.00
2019-04-12T22:35:55.801Z,100.00
2019-04-12T22:38:24.239Z,100.00
2019-04-12T22:40:52.641Z,100.00
2019-04-12T22:43:21.072Z,100.00
2019-04-12T22:45:49.478Z,100.00
2019-04-12T22:48:17.915Z,100.00
2019-04-12T22:50:46.315Z,100.00
2019-04-12T22:53:14.760Z,100.00
2019-04-12T22:55:43.159Z,100.00
2019-04-12T22:58:11.578Z,100.00
2019-04-12T23:00:39.987Z,100.00
2019-04-12T23:03:08.418Z,100.00
2019-04-12T23:05:36.835Z,100.00
2019-04-12T23:08:05.346Z,100.00
2019-04-12T23:10:34.208Z,100.00
2019-04-12T23:13:02.651Z,100.00
2019-04-12T23:15:31.052Z,100.00
2019-04-12T23:17:59.489Z,100.00
2019-04-12T23:20:27.891Z,100.00
2019-04-12T23:22:56.292Z,100.00
2019-04-12T23:25:24.725Z,100.00
2019-04-12T23:27:53.133Z,100.00
2019-04-12T23:30:23.199Z,100.00
2019-04-12T23:32:51.598Z,100.00
2019-04-12T23:35:21.670Z,100.00
2019-04-12T23:37:50.113Z,100.00
2019-04-12T23:40:18.552Z,100.00
2019-04-12T23:42:46.952Z,100.00
2019-04-12T23:45:17.090Z,100.00
2019-04-12T23:47:45.493Z,100.00
2019-04-12T23:50:14.567Z,100.00
2019-04-12T23:52:42.972Z,100.00
2019-04-12T23:55:11.480Z,100.00
2019-04-12T23:57:39.881Z,100.00
